Time;durP1;ratioP1;P1;durP2;ratioP2;P2;SDS_P1;SDS_P2;PMS_P1;PMS_P2;Temp;Humidity;BMP_temperature;BMP_pressure;BME280_temperature;BME280_humidity;BME280_pressure;Samples;Min_cycle;Max_cycle;Signal;HPM_P1;HPM_P2
2022/12/18 00:00:28;;;;;;;115.63;53.17;;;-1.00;99.90;;;;;;5012200;28;20040;-65
2022/12/18 00:02:55;;;;;;;95.72;43.97;;;-0.90;99.90;;;;;;5014268;28;20133;-65
2022/12/18 00:05:21;;;;;;;106.53;49.58;;;0.50;1.00;;;;;;5014959;28;20041;-65
2022/12/18 00:07:46;;;;;;;103.30;47.30;;;0.40;1.00;;;;;;5011867;28;20046;-65
2022/12/18 00:10:12;;;;;;;96.03;46.00;;;-0.60;14.60;;;;;;5010955;28;20034;-65
2022/12/18 00:12:37;;;;;;;104.13;51.38;;;-0.40;99.20;;;;;;5009878;28;20115;-65
2022/12/18 00:15:03;;;;;;;100.85;48.10;;;0.80;99.90;;;;;;5014094;28;20045;-65
2022/12/18 00:17:29;;;;;;;100.43;48.38;;;0.80;99.90;;;;;;5010413;28;20038;-65
2022/12/18 00:19:54;;;;;;;102.10;49.38;;;-0.50;99.90;;;;;;5011776;28;20041;-65
2022/12/18 00:22:20;;;;;;;107.20;50.03;;;0.80;99.90;;;;;;5009576;28;20034;-65
2022/12/18 00:24:45;;;;;;;99.53;41.60;;;-0.50;99.90;;;;;;5011931;28;20060;-65
2022/12/18 00:27:11;;;;;;;560.53;64.78;;;-0.20;99.90;;;;;;5006445;28;20030;-65
2022/12/18 00:29:36;;;;;;;89.57;38.10;;;-0.40;1.00;;;;;;5012861;28;20545;-65
2022/12/18 00:32:02;;;;;;;119.47;55.22;;;0.70;55.70;;;;;;5010705;28;20122;-65
2022/12/18 00:34:27;;;;;;;109.38;50.50;;;1.00;53.80;;;;;;5029525;28;20411;-65
2022/12/18 00:36:53;;;;;;;111.68;50.33;;;0.90;62.90;;;;;;5013964;28;20045;-65
2022/12/18 00:39:19;;;;;;;85.00;39.90;;;0.70;55.50;;;;;;5013164;28;20156;-65
2022/12/18 00:44:28;;;;;;;115.03;52.42;;;-0.10;40.90;;;;;;5008461;28;20136;-65
2022/12/18 00:46:54;;;;;;;119.63;55.53;;;0.30;53.20;;;;;;5003872;28;20121;-65
2022/12/18 00:49:20;;;;;;;132.07;58.83;;;-0.50;27.00;;;;;;5011755;28;20034;-65
2022/12/18 00:51:46;;;;;;;122.38;56.42;;;-0.10;33.90;;;;;;5010366;28;20046;-65
2022/12/18 00:54:12;;;;;;;126.38;56.78;;;-0.50;60.80;;;;;;5012966;28;20129;-65
2022/12/18 00:56:38;;;;;;;75.97;35.63;;;0.80;99.90;;;;;;5011530;28;20556;-65
2022/12/18 00:59:04;;;;;;;100.43;44.20;;;0.90;99.90;;;;;;5012176;28;20399;-65
2022/12/18 01:01:30;;;;;;;102.25;45.63;;;0.80;99.90;;;;;;5009383;28;20137;-65
2022/12/18 01:04:00;;;;;;;104.50;47.35;;;0.60;99.90;;;;;;5013051;28;20555;-65
2022/12/18 01:06:26;;;;;;;80.03;38.47;;;0.90;99.90;;;;;;5011005;28;20045;-65
2022/12/18 01:08:52;;;;;;;73.22;33.08;;;-0.40;99.90;;;;;;5011166;28;20510;-65
2022/12/18 01:11:20;;;;;;;78.53;35.70;;;0.40;1.00;;;;;;5007882;28;20095;-65
2022/12/18 01:13:46;;;;;;;107.47;48.15;;;0.90;1.00;;;;;;5002702;28;20116;-65
2022/12/18 01:16:13;;;;;;;72.13;36.30;;;-0.50;1.00;;;;;;5009909;28;20068;-65
2022/12/18 01:18:39;;;;;;;96.50;44.38;;;0.10;1.00;;;;;;5008624;28;20049;-65
2022/12/18 01:21:11;;;;;;;91.93;45.55;;;-0.50;99.90;;;;;;5009260;28;20042;-65
2022/12/18 01:23:37;;;;;;;106.45;46.08;;;-0.30;99.90;;;;;;5006502;28;20201;-65
2022/12/18 01:26:16;;;;;;;107.32;49.70;;;-0.20;99.90;;;;;;5011439;28;20046;-65
2022/12/18 01:28:43;;;;;;;115.80;53.20;;;0.00;1.00;;;;;;5025593;28;20060;-65
2022/12/18 01:31:30;;;;;;;100.20;45.95;;;0.40;1.00;;;;;;5010479;28;20037;-65
2022/12/18 01:33:57;;;;;;;99.20;45.92;;;-0.60;1.00;;;;;;5010258;28;20418;-65
2022/12/18 01:36:26;;;;;;;96.53;45.47;;;-0.30;1.00;;;;;;5011713;28;20046;-65
2022/12/18 01:38:52;;;;;;;119.10;52.38;;;0.10;1.00;;;;;;5013221;28;20488;-65
2022/12/18 01:41:21;;;;;;;93.15;44.50;;;-0.70;1.00;;;;;;5009875;28;20073;-65
2022/12/18 01:43:52;;;;;;;94.05;44.55;;;-0.60;99.90;;;;;;5012289;28;20045;-65
2022/12/18 01:46:19;;;;;;;104.43;49.33;;;-0.40;99.90;;;;;;5011398;28;20030;-65
2022/12/18 01:48:47;;;;;;;117.18;50.35;;;-0.70;99.90;;;;;;5012981;28;20042;-65
2022/12/18 01:51:13;;;;;;;119.18;54.72;;;0.50;99.90;;;;;;5008623;28;20403;-65
2022/12/18 01:53:41;;;;;;;89.03;38.42;;;0.20;99.90;;;;;;5005636;28;20050;-65
2022/12/18 01:56:07;;;;;;;100.57;45.88;;;-0.80;99.90;;;;;;5006190;28;20042;-65
2022/12/18 01:58:59;;;;;;;86.50;37.22;;;0.60;99.90;;;;;;5026842;28;20410;-65
2022/12/18 02:01:25;;;;;;;97.75;42.55;;;0.20;1.00;;;;;;5002209;28;20053;-65
2022/12/18 02:03:52;;;;;;;74.10;33.55;;;0.40;99.90;;;;;;5011453;28;20124;-65
2022/12/18 02:06:33;;;;;;;90.60;41.28;;;0.60;99.90;;;;;;5008488;28;20529;-65
2022/12/18 02:09:14;;;;;;;115.78;55.00;;;0.30;1.00;;;;;;5010957;28;20037;-65
2022/12/18 02:12:04;;;;;;;103.45;49.72;;;-0.70;99.90;;;;;;5006791;28;20046;-65
2022/12/18 02:15:04;;;;;;;90.78;41.67;;;-0.30;99.90;;;;;;5009834;28;20041;-65
2022/12/18 02:17:42;;;;;;;94.88;44.33;;;0.20;99.90;;;;;;5005022;28;20044;-65
2022/12/18 02:20:23;;;;;;;105.85;48.38;;;-0.10;99.90;;;;;;5011362;28;20046;-65
2022/12/18 02:23:23;;;;;;;99.15;44.28;;;-0.70;1.00;;;;;;5009462;28;20074;-65
2022/12/18 02:26:12;;;;;;;81.80;37.05;;;0.50;1.00;;;;;;5002729;28;20034;-65
2022/12/18 02:28:45;;;;;;;93.90;42.33;;;0.40;1.00;;;;;;5008670;28;20046;-65
2022/12/18 02:31:16;;;;;;;77.55;36.80;;;0.20;1.00;;;;;;5010863;28;20053;-65
2022/12/18 02:33:44;;;;;;;94.28;44.20;;;-0.70;1.00;;;;;;5009735;28;20534;-65
2022/12/18 02:36:12;;;;;;;106.93;48.53;;;-1.00;1.00;;;;;;5011276;28;20121;-65
2022/12/18 02:38:39;;;;;;;75.82;38.10;;;0.20;1.00;;;;;;4993194;28;20133;-65
2022/12/18 02:41:06;;;;;;;98.05;44.40;;;-0.60;1.00;;;;;;5002102;28;20081;-65
2022/12/18 02:43:31;;;;;;;112.15;46.75;;;0.00;1.00;;;;;;5012281;28;20069;-65
2022/12/18 02:46:00;;;;;;;112.15;48.53;;;-0.90;1.00;;;;;;5010273;28;20073;-65
2022/12/18 02:48:33;;;;;;;98.47;46.63;;;-0.20;1.00;;;;;;5009340;28;20602;-65
2022/12/18 02:51:13;;;;;;;97.05;43.17;;;-0.90;1.00;;;;;;5010374;28;20037;-65
2022/12/18 02:53:49;;;;;;;82.40;37.85;;;-0.50;87.00;;;;;;5011197;28;20030;-65
2022/12/18 02:56:37;;;;;;;78.35;35.97;;;0.30;99.90;;;;;;5009987;28;20132;-65
2022/12/18 02:59:13;;;;;;;76.03;35.58;;;0.40;99.90;;;;;;5007896;28;20034;-65
2022/12/18 03:01:49;;;;;;;84.78;40.17;;;0.20;99.90;;;;;;5009801;28;20046;-65
2022/12/18 03:04:39;;;;;;;86.15;39.95;;;-1.10;99.90;;;;;;5007479;28;20100;-65
2022/12/18 03:07:11;;;;;;;88.70;41.88;;;0.50;99.90;;;;;;5007293;28;20049;-65
2022/12/18 03:09:42;;;;;;;107.93;50.47;;;0.50;1.00;;;;;;5001777;28;20037;-65
2022/12/18 03:12:22;;;;;;;124.07;57.53;;;0.50;1.00;;;;;;5011350;28;20054;-65
2022/12/18 03:14:55;;;;;;;102.25;44.95;;;-0.40;1.00;;;;;;5000424;28;20137;-65
2022/12/18 03:17:24;;;;;;;98.80;45.28;;;-1.20;1.00;;;;;;5005215;28;20133;-65
2022/12/18 03:19:53;;;;;;;82.75;37.80;;;-0.70;1.00;;;;;;5004704;28;20065;-64
2022/12/18 03:22:21;;;;;;;106.60;48.45;;;-1.00;95.20;;;;;;5009987;28;20030;-65
2022/12/18 03:24:48;;;;;;;88.57;42.58;;;0.50;97.00;;;;;;5009972;28;20045;-65
2022/12/18 03:27:18;;;;;;;106.72;48.58;;;-1.10;99.90;;;;;;5008159;28;20077;-65
2022/12/18 03:30:06;;;;;;;87.88;40.03;;;-0.30;99.90;;;;;;5010247;28;20037;-65
2022/12/18 03:32:37;;;;;;;86.15;39.80;;;-1.10;99.90;;;;;;5006969;28;20117;-65
2022/12/18 03:35:05;;;;;;;84.32;40.42;;;-1.10;99.90;;;;;;5009072;28;20042;-65
2022/12/18 03:37:31;;;;;;;83.00;41.13;;;-0.90;99.90;;;;;;5008695;28;20483;-65
2022/12/18 03:39:56;;;;;;;102.13;48.97;;;-0.70;99.90;;;;;;5008931;28;20038;-64
2022/12/18 03:42:32;;;;;;;111.47;51.03;;;-1.20;99.90;;;;;;5008403;28;20049;-65
2022/12/18 03:45:02;;;;;;;122.68;53.20;;;-1.10;99.90;;;;;;5008910;28;20042;-65
2022/12/18 03:47:53;;;;;;;104.40;49.95;;;-1.20;99.90;;;;;;5006855;28;20042;-64
2022/12/18 03:50:34;;;;;;;88.20;41.08;;;0.10;99.90;;;;;;5009795;28;20034;-65
2022/12/18 03:53:10;;;;;;;78.82;39.72;;;0.10;99.90;;;;;;5008950;28;20053;-65
2022/12/18 03:55:37;;;;;;;84.28;42.35;;;-1.30;99.90;;;;;;5007238;28;20639;-65
2022/12/18 03:58:06;;;;;;;85.03;41.58;;;-1.40;99.90;;;;;;5008097;28;20104;-65
2022/12/18 04:00:33;;;;;;;84.97;41.85;;;-0.30;99.90;;;;;;5008674;28;20890;-65
2022/12/18 04:03:01;;;;;;;86.72;42.30;;;-0.80;99.90;;;;;;5008591;28;20077;-64
2022/12/18 04:05:28;;;;;;;104.20;50.35;;;-0.20;98.50;;;;;;5008622;28;20511;-65
2022/12/18 04:07:56;;;;;;;101.55;48.95;;;-0.40;76.20;;;;;;5010275;28;20034;-65
2022/12/18 04:10:22;;;;;;;95.47;45.15;;;-0.70;25.80;;;;;;5009913;28;20121;-65
2022/12/18 04:12:48;;;;;;;106.57;48.45;;;-0.50;1.00;;;;;;5008169;28;20050;-64
2022/12/18 04:15:13;;;;;;;92.45;43.67;;;-0.50;1.00;;;;;;5013209;28;20383;-65
2022/12/18 04:17:47;;;;;;;85.88;38.70;;;-0.80;1.00;;;;;;5010081;28;20128;-64
2022/12/18 04:20:13;;;;;;;95.28;43.63;;;-0.10;1.00;;;;;;5014509;28;20049;-64
2022/12/18 04:22:38;;;;;;;96.65;44.83;;;-0.60;99.90;;;;;;5012643;28;20124;-65
2022/12/18 04:25:04;;;;;;;93.60;41.92;;;-1.70;99.90;;;;;;5013409;28;20124;-65
2022/12/18 04:27:30;;;;;;;95.82;42.25;;;-2.00;26.00;;;;;;5009564;28;20460;-65
2022/12/18 04:29:55;;;;;;;94.93;42.60;;;-1.30;1.00;;;;;;5012042;28;20753;-65
2022/12/18 04:32:21;;;;;;;80.35;34.45;;;-1.50;99.90;;;;;;5012246;28;20117;-65
2022/12/18 04:34:47;;;;;;;100.53;43.92;;;-2.00;99.90;;;;;;5013841;28;20034;-64
2022/12/18 04:37:12;;;;;;;113.25;46.60;;;-1.20;99.90;;;;;;5011258;28;20034;-65
2022/12/18 04:39:38;;;;;;;122.60;45.42;;;-2.10;62.90;;;;;;5012576;28;20033;-65
2022/12/18 04:42:04;;;;;;;122.20;51.13;;;-2.20;4.40;;;;;;5012188;28;20033;-64
2022/12/18 04:44:30;;;;;;;132.27;52.28;;;-2.70;1.00;;;;;;5013517;28;20112;-65
2022/12/18 04:46:55;;;;;;;94.82;39.22;;;-1.80;1.00;;;;;;5009454;28;20041;-65
2022/12/18 04:49:21;;;;;;;113.25;40.70;;;-1.30;10.20;;;;;;5011609;28;20050;-64
2022/12/18 04:51:47;;;;;;;90.53;33.97;;;-1.10;47.40;;;;;;5013320;28;20402;-65
2022/12/18 04:54:12;;;;;;;129.60;45.55;;;-1.50;96.70;;;;;;5012460;28;20125;-65
2022/12/18 04:56:38;;;;;;;117.90;43.20;;;-2.00;99.90;;;;;;5010424;28;20037;-65
2022/12/18 04:59:03;;;;;;;105.30;45.35;;;-1.50;99.90;;;;;;4996632;28;20426;-65
2022/12/18 05:01:29;;;;;;;111.85;43.22;;;-2.50;99.90;;;;;;5012721;28;20041;-65
2022/12/18 05:03:54;;;;;;;105.38;43.97;;;-2.30;99.90;;;;;;5011361;28;20092;-64
2022/12/18 05:06:20;;;;;;;92.00;39.33;;;-2.50;99.90;;;;;;5010983;28;20057;-65
2022/12/18 05:08:45;;;;;;;96.35;39.80;;;-2.00;99.90;;;;;;5012576;28;20053;-64
2022/12/18 05:11:16;;;;;;;99.00;43.05;;;-2.10;99.90;;;;;;5011986;28;20052;-65
2022/12/18 05:13:42;;;;;;;106.15;44.15;;;-2.20;99.90;;;;;;5013513;28;20037;-65
2022/12/18 05:16:09;;;;;;;118.95;49.88;;;-2.00;99.90;;;;;;5013832;28;20070;-65
2022/12/18 05:18:35;;;;;;;105.60;45.55;;;-2.50;99.90;;;;;;5011252;28;20060;-65
2022/12/18 05:21:01;;;;;;;97.70;41.38;;;-2.00;94.40;;;;;;5010620;28;20037;-64
2022/12/18 05:23:27;;;;;;;258.55;49.70;;;-2.90;35.30;;;;;;5010872;28;20455;-64
2022/12/18 05:25:55;;;;;;;101.47;42.33;;;-1.60;99.90;;;;;;5012017;28;20029;-64
2022/12/18 05:28:22;;;;;;;89.85;39.45;;;-1.80;99.90;;;;;;4992126;28;20455;-64
2022/12/18 05:30:52;;;;;;;98.55;40.90;;;-1.80;9.50;;;;;;5010261;28;20046;-65
2022/12/18 05:33:19;;;;;;;94.63;41.38;;;-1.60;1.00;;;;;;5012738;28;20052;-64
2022/12/18 05:36:03;;;;;;;83.00;36.47;;;-2.00;1.00;;;;;;5011364;28;20076;-64
2022/12/18 05:38:30;;;;;;;82.18;36.05;;;-3.00;99.90;;;;;;5007998;28;20084;-64
2022/12/18 05:40:56;;;;;;;95.47;42.90;;;-2.20;99.90;;;;;;5012073;28;20053;-64
2022/12/18 05:43:22;;;;;;;90.65;38.42;;;-2.80;99.90;;;;;;5012035;28;20033;-64
2022/12/18 05:45:49;;;;;;;89.90;39.42;;;-2.60;81.30;;;;;;5008871;28;20033;-64
2022/12/18 05:48:15;;;;;;;98.13;41.10;;;-2.40;1.00;;;;;;5009802;28;20030;-64
2022/12/18 05:50:45;;;;;;;88.85;39.35;;;-2.70;1.00;;;;;;5011265;28;20042;-65
2022/12/18 05:53:10;;;;;;;88.43;37.97;;;-3.30;99.90;;;;;;5009305;28;20112;-64
2022/12/18 05:55:37;;;;;;;89.38;40.33;;;-2.60;99.90;;;;;;5012285;28;20076;-64
2022/12/18 05:58:04;;;;;;;95.40;41.20;;;-3.20;1.00;;;;;;5009881;28;20095;-64
2022/12/18 06:00:31;;;;;;;92.40;40.80;;;-2.80;1.00;;;;;;5011056;28;20487;-64
2022/12/18 06:02:57;;;;;;;86.07;34.22;;;-2.90;1.00;;;;;;5008930;28;20113;-64
2022/12/18 06:05:23;;;;;;;91.90;40.15;;;-3.00;99.90;;;;;;5011818;28;20205;-64
2022/12/18 06:07:48;;;;;;;66.13;29.90;;;-3.00;99.90;;;;;;5009084;28;20152;-64
2022/12/18 06:10:14;;;;;;;76.65;33.95;;;-3.00;99.90;;;;;;5011932;28;20407;-64
2022/12/18 06:12:39;;;;;;;75.60;32.90;;;-2.70;99.90;;;;;;5008230;28;20053;-64
2022/12/18 06:15:05;;;;;;;71.38;29.40;;;-3.50;99.90;;;;;;5011410;28;20057;-64
2022/12/18 06:17:32;;;;;;;67.85;26.90;;;-3.20;99.90;;;;;;5007423;28;20060;-64
2022/12/18 06:19:58;;;;;;;74.90;32.28;;;-3.10;98.70;;;;;;5008622;28;20087;-64
2022/12/18 06:22:24;;;;;;;75.45;29.90;;;-2.80;56.20;;;;;;5010555;28;20037;-64
2022/12/18 06:24:50;;;;;;;64.00;29.20;;;-2.70;4.70;;;;;;5009849;28;20073;-64
2022/12/18 06:27:15;;;;;;;70.10;30.85;;;-3.30;1.00;;;;;;5006039;28;20127;-64
2022/12/18 06:29:41;;;;;;;78.25;32.63;;;-2.70;1.00;;;;;;4993665;28;20467;-64
2022/12/18 06:32:07;;;;;;;77.45;36.53;;;-2.80;1.00;;;;;;5010690;28;20048;-64
2022/12/18 06:34:33;;;;;;;84.22;38.28;;;-3.50;99.90;;;;;;5010652;28;20506;-64
2022/12/18 06:36:58;;;;;;;91.13;36.92;;;-3.50;99.90;;;;;;5009533;28;20041;-64
2022/12/18 06:39:27;;;;;;;87.80;40.88;;;-3.10;99.90;;;;;;5010017;28;20112;-64
2022/12/18 06:41:52;;;;;;;684.17;54.95;;;-3.40;99.90;;;;;;5011699;28;20045;-64
2022/12/18 06:44:18;;;;;;;78.68;31.15;;;-2.90;99.90;;;;;;5012459;28;20140;-64
2022/12/18 06:46:44;;;;;;;69.63;31.88;;;-2.50;99.90;;;;;;5010418;28;20168;-64
2022/12/18 06:49:09;;;;;;;69.50;29.48;;;-2.70;99.90;;;;;;5009359;28;20041;-64
2022/12/18 06:51:35;;;;;;;62.35;25.63;;;-2.30;99.90;;;;;;5010126;28;20050;-65
2022/12/18 06:54:01;;;;;;;61.15;27.92;;;-3.40;99.90;;;;;;5000729;28;20438;-64
2022/12/18 06:56:26;;;;;;;53.28;24.20;;;-3.30;81.10;;;;;;5006273;28;20034;-64
2022/12/18 06:58:52;;;;;;;67.97;31.48;;;-3.40;19.10;;;;;;5009753;28;20038;-64
2022/12/18 07:01:18;;;;;;;54.78;25.02;;;-3.50;1.00;;;;;;5008532;28;20454;-64
2022/12/18 07:03:44;;;;;;;66.72;30.80;;;-2.90;1.00;;;;;;5011368;28;20042;-64
2022/12/18 07:06:18;;;;;;;60.42;27.30;;;-2.90;1.00;;;;;;5008780;28;20394;-64
2022/12/18 07:08:45;;;;;;;74.30;33.53;;;-3.20;1.00;;;;;;5011478;28;20037;-63
2022/12/18 07:11:10;;;;;;;53.47;24.73;;;-3.40;99.90;;;;;;4990913;28;20049;-64
2022/12/18 07:13:36;;;;;;;62.95;30.30;;;-2.70;99.90;;;;;;5009640;28;20057;-64
2022/12/18 07:16:10;;;;;;;65.95;30.83;;;-3.00;99.90;;;;;;5007985;28;20050;-64
2022/12/18 07:18:36;;;;;;;54.45;23.05;;;-3.20;99.90;;;;;;5006539;28;20052;-64
2022/12/18 07:21:07;;;;;;;47.08;22.92;;;-3.40;99.90;;;;;;5007966;28;20392;-64
2022/12/18 07:23:34;;;;;;;51.22;24.48;;;-3.50;99.90;;;;;;5004478;28;20037;-64
2022/12/18 07:26:11;;;;;;;57.13;26.10;;;-3.50;99.90;;;;;;5005125;28;20038;-64
2022/12/18 07:28:37;;;;;;;54.50;24.42;;;-3.50;99.90;;;;;;5022417;28;20046;-64
2022/12/18 07:31:17;;;;;;;54.80;23.83;;;-2.40;99.90;;;;;;5029255;28;20048;-64
2022/12/18 07:33:45;;;;;;;51.78;25.25;;;-3.20;99.90;;;;;;5028961;28;20049;-64
2022/12/18 07:36:12;;;;;;;51.28;24.33;;;-3.40;48.10;;;;;;5025536;28;20045;-64
2022/12/18 07:38:38;;;;;;;59.60;25.63;;;-3.40;1.00;;;;;;5020730;28;20072;-64
2022/12/18 07:41:06;;;;;;;46.72;20.27;;;-3.40;1.00;;;;;;5022457;28;20050;-64
2022/12/18 07:43:32;;;;;;;58.65;25.80;;;-3.20;1.00;;;;;;5016192;28;20435;-64
2022/12/18 07:45:57;;;;;;;53.42;24.33;;;-3.30;1.00;;;;;;5029614;28;20113;-64
2022/12/18 07:48:23;;;;;;;43.33;20.35;;;-3.50;99.90;;;;;;5030371;28;20040;-64
2022/12/18 07:50:48;;;;;;;56.92;24.80;;;-3.00;99.90;;;;;;5020869;28;20371;-64
2022/12/18 07:53:14;;;;;;;67.15;29.60;;;-2.60;99.90;;;;;;5024783;28;20037;-63
2022/12/18 07:55:41;;;;;;;59.75;26.13;;;-3.30;99.90;;;;;;5030129;28;20053;-64
2022/12/18 07:58:07;;;;;;;53.10;25.38;;;-2.90;99.90;;;;;;5032128;28;20041;-64
2022/12/18 08:00:34;;;;;;;56.33;25.75;;;-3.30;99.90;;;;;;5033208;28;20045;-64
2022/12/18 08:02:59;;;;;;;46.08;19.98;;;-3.00;99.90;;;;;;5032080;28;20371;-63
2022/12/18 08:05:25;;;;;;;59.67;28.15;;;-3.10;99.90;;;;;;5027110;28;20038;-64
2022/12/18 08:07:51;;;;;;;57.22;25.85;;;-2.90;99.90;;;;;;5023192;28;20526;-64
2022/12/18 08:10:17;;;;;;;42.72;21.42;;;-3.10;99.90;;;;;;5034389;28;20038;-64
2022/12/18 08:12:42;;;;;;;56.05;25.13;;;-2.90;99.90;;;;;;5031049;28;20857;-66
2022/12/18 08:15:08;;;;;;;50.42;22.95;;;-3.50;99.90;;;;;;5030647;28;20112;-63
2022/12/18 08:17:34;;;;;;;47.38;20.60;;;-3.40;95.20;;;;;;5023595;28;20459;-64
2022/12/18 08:20:00;;;;;;;44.30;22.13;;;-3.10;51.90;;;;;;5032778;28;20048;-64
2022/12/18 08:22:25;;;;;;;58.05;24.67;;;-3.20;18.10;;;;;;5026586;28;20040;-65
2022/12/18 08:24:51;;;;;;;50.28;23.95;;;-2.90;1.00;;;;;;5027896;28;20037;-64
2022/12/18 08:27:16;;;;;;;41.85;20.50;;;-2.80;1.00;;;;;;5032807;28;20121;-64
2022/12/18 08:29:42;;;;;;;46.83;23.83;;;-2.40;1.00;;;;;;5029575;28;20069;-64
2022/12/18 08:32:07;;;;;;;52.55;26.52;;;-3.00;1.00;;;;;;5029785;28;20043;-64
2022/12/18 08:34:33;;;;;;;52.22;23.77;;;-2.80;1.00;;;;;;5025751;28;20038;-64
2022/12/18 08:36:59;;;;;;;44.60;21.60;;;-3.30;1.00;;;;;;5014460;28;20042;-64
2022/12/18 08:39:24;;;;;;;45.05;18.95;;;-2.80;1.00;;;;;;5011226;28;20052;-63
2022/12/18 08:44:37;;;;;;;38.20;18.92;;;-2.60;99.90;;;;;;5030224;28;20045;-64
2022/12/18 08:47:02;;;;;;;38.22;18.65;;;-2.50;99.90;;;;;;5030656;28;20037;-64
2022/12/18 08:49:28;;;;;;;39.97;21.77;;;-1.90;99.90;;;;;;5032454;28;20556;-63
2022/12/18 08:51:56;;;;;;;37.42;17.85;;;-2.60;99.90;;;;;;5032391;28;20091;-63
2022/12/18 08:54:22;;;;;;;40.20;18.88;;;-2.80;99.90;;;;;;5023180;28;20046;-63
2022/12/18 08:56:49;;;;;;;48.38;20.77;;;-2.50;99.90;;;;;;5028360;28;20042;-64
2022/12/18 08:59:15;;;;;;;34.20;17.13;;;-2.40;99.90;;;;;;5031584;28;20057;-63
2022/12/18 09:01:41;;;;;;;40.92;22.08;;;-2.70;99.90;;;;;;5031000;28;20053;-63
2022/12/18 09:04:08;;;;;;;46.92;22.77;;;-2.40;99.90;;;;;;5027844;28;21552;-63
2022/12/18 09:06:34;;;;;;;55.83;26.10;;;-1.60;99.90;;;;;;5043174;28;20034;-68
2022/12/18 09:08:59;;;;;;;50.15;25.95;;;-2.20;99.90;;;;;;5027218;28;20103;-63
2022/12/18 09:11:27;;;;;;;235.85;29.15;;;-2.50;99.90;;;;;;5026507;28;20073;-65
2022/12/18 09:13:54;;;;;;;46.42;23.60;;;-2.30;99.90;;;;;;5039289;28;20068;-64
2022/12/18 09:16:21;;;;;;;46.63;24.10;;;-1.90;99.90;;;;;;5030771;28;20479;-66
2022/12/18 09:18:47;;;;;;;42.25;22.95;;;-1.80;99.90;;;;;;5030423;28;20103;-64
2022/12/18 09:21:18;;;;;;;43.75;21.92;;;-2.10;99.90;;;;;;5031679;28;20052;-63
2022/12/18 09:23:44;;;;;;;41.47;22.00;;;-1.70;99.90;;;;;;5031532;28;20038;-64
2022/12/18 09:26:10;;;;;;;37.55;20.13;;;-1.70;97.10;;;;;;5016411;28;20509;-63
2022/12/18 09:28:35;;;;;;;43.15;22.63;;;-1.40;79.20;;;;;;5008530;28;20038;-63
2022/12/18 09:31:07;;;;;;;38.53;20.63;;;-1.60;48.40;;;;;;5030706;28;20555;-63
2022/12/18 09:33:34;;;;;;;34.85;18.80;;;-1.70;11.90;;;;;;5029965;28;20041;-64
2022/12/18 09:36:02;;;;;;;44.05;23.08;;;-1.70;1.00;;;;;;5029051;28;20045;-63
2022/12/18 09:38:27;;;;;;;42.85;23.73;;;-1.40;1.00;;;;;;5041246;28;20037;-63
2022/12/18 09:40:59;;;;;;;40.90;22.23;;;-1.50;1.00;;;;;;5025931;28;20040;-65
2022/12/18 09:43:42;;;;;;;42.08;22.20;;;-1.40;1.00;;;;;;5022547;28;20045;-64
2022/12/18 09:46:16;;;;;;;40.55;22.52;;;-1.80;1.00;;;;;;5029246;28;20029;-63
2022/12/18 09:48:47;;;;;;;37.05;18.70;;;-1.70;1.00;;;;;;5030707;28;20458;-63
2022/12/18 09:51:15;;;;;;;37.28;19.98;;;-1.10;1.00;;;;;;5019583;28;20038;-64
2022/12/18 09:53:44;;;;;;;31.45;16.98;;;-1.30;1.00;;;;;;5025472;28;20075;-64
2022/12/18 09:56:18;;;;;;;28.33;16.73;;;-1.20;1.00;;;;;;5025445;28;20037;-64
2022/12/18 09:58:57;;;;;;;33.38;14.43;;;-0.70;99.90;;;;;;5029749;28;20556;-64
2022/12/18 10:01:23;;;;;;;30.45;16.38;;;-0.80;99.90;;;;;;5024601;28;20041;-64
2022/12/18 10:03:50;;;;;;;29.52;15.52;;;-0.90;99.90;;;;;;5025682;28;20124;-64
2022/12/18 10:06:43;;;;;;;34.33;18.05;;;-0.80;99.90;;;;;;5027661;28;20060;-64
2022/12/18 10:09:31;;;;;;;36.35;18.67;;;-0.70;99.90;;;;;;5006589;28;20136;-63
2022/12/18 10:12:12;;;;;;;30.77;17.63;;;-0.90;99.90;;;;;;5031260;28;20395;-64
2022/12/18 10:14:56;;;;;;;28.27;15.65;;;-0.90;99.90;;;;;;5026032;28;20057;-63
2022/12/18 10:17:51;;;;;;;29.10;17.10;;;-0.70;99.90;;;;;;5020868;28;20100;-63
2022/12/18 10:20:40;;;;;;;26.15;13.63;;;-0.10;99.90;;;;;;5027254;28;20510;-64
2022/12/18 10:23:47;;;;;;;23.80;11.90;;;-0.40;99.90;;;;;;5031555;28;20508;-63
2022/12/18 10:26:13;;;;;;;27.00;15.13;;;-0.40;62.90;;;;;;5021938;28;20080;-63
2022/12/18 10:28:40;;;;;;;32.88;17.02;;;-0.20;19.80;;;;;;5026029;28;21123;-64
2022/12/18 10:31:12;;;;;;;27.42;16.00;;;-0.40;1.00;;;;;;5008904;28;20052;-63
2022/12/18 10:33:38;;;;;;;27.15;17.67;;;-0.30;1.00;;;;;;5030022;28;20049;-63
2022/12/18 10:36:06;;;;;;;26.50;14.90;;;-0.40;1.00;;;;;;5031297;28;20044;-63
2022/12/18 10:38:32;;;;;;;24.05;14.43;;;-0.20;1.00;;;;;;5024276;28;20117;-63
2022/12/18 10:41:00;;;;;;;31.27;16.85;;;-0.20;1.00;;;;;;5027616;28;20107;-64
2022/12/18 10:43:26;;;;;;;21.85;11.93;;;-0.20;1.00;;;;;;5027999;28;20116;-64
2022/12/18 10:46:21;;;;;;;23.42;13.98;;;-0.10;1.00;;;;;;5027734;28;20125;-63
2022/12/18 10:48:46;;;;;;;21.42;11.35;;;0.00;1.00;;;;;;5007765;28;20046;-63
2022/12/18 10:51:24;;;;;;;24.40;14.07;;;0.00;1.00;;;;;;5019870;28;20523;-63
2022/12/18 10:53:54;;;;;;;26.10;13.85;;;0.00;99.90;;;;;;5017897;28;20103;-64
2022/12/18 10:56:21;;;;;;;22.55;12.88;;;0.10;99.90;;;;;;5029206;28;20228;-63
2022/12/18 10:58:57;;;;;;;25.25;12.77;;;0.30;99.90;;;;;;5022755;28;20048;-63
2022/12/18 11:01:22;;;;;;;21.08;12.52;;;0.10;99.90;;;;;;5021398;28;20048;-64
2022/12/18 11:03:54;;;;;;;23.27;13.70;;;0.20;99.90;;;;;;5027930;28;20458;-63
2022/12/18 11:06:24;;;;;;;18.45;11.18;;;0.10;99.90;;;;;;5027846;28;20034;-64
2022/12/18 11:09:05;;;;;;;23.40;12.57;;;0.10;99.90;;;;;;5017854;28;20046;-63
2022/12/18 11:11:32;;;;;;;18.75;11.02;;;0.50;99.90;;;;;;5029619;28;20057;-63
2022/12/18 11:14:15;;;;;;;19.95;10.93;;;0.30;99.90;;;;;;5027729;28;20056;-63
2022/12/18 11:16:46;;;;;;;19.02;11.45;;;0.30;99.90;;;;;;5027842;28;20549;-64
2022/12/18 11:19:24;;;;;;;20.98;11.48;;;0.30;99.90;;;;;;5025022;28;20034;-64
2022/12/18 11:21:50;;;;;;;19.70;11.18;;;0.40;99.90;;;;;;5024995;28;20045;-64
2022/12/18 11:24:28;;;;;;;19.02;12.40;;;0.40;99.90;;;;;;5024289;28;20085;-64
2022/12/18 11:26:55;;;;;;;18.85;11.52;;;0.30;99.90;;;;;;5020298;28;20552;-64
2022/12/18 11:29:29;;;;;;;17.80;9.93;;;0.30;99.90;;;;;;5022944;28;20047;-63
2022/12/18 11:32:14;;;;;;;21.75;11.77;;;0.40;99.90;;;;;;5022445;28;20052;-63
2022/12/18 11:34:45;;;;;;;21.27;11.43;;;0.20;99.90;;;;;;5023194;28;20111;-63
2022/12/18 11:37:13;;;;;;;19.95;9.80;;;0.10;93.00;;;;;;5023201;28;20034;-63
2022/12/18 11:39:56;;;;;;;14.00;8.68;;;0.40;89.30;;;;;;5028566;28;20044;-63
2022/12/18 11:42:34;;;;;;;15.65;9.70;;;0.30;77.50;;;;;;5027713;28;20076;-64
2022/12/18 11:45:15;;;;;;;17.00;9.20;;;0.50;50.60;;;;;;5027259;28;20037;-64
2022/12/18 11:47:57;;;;;;;13.48;8.50;;;0.50;32.60;;;;;;5028332;28;20042;-63
2022/12/18 11:50:38;;;;;;;14.88;8.07;;;0.60;11.30;;;;;;5045057;28;20042;-63
2022/12/18 11:53:04;;;;;;;16.77;9.90;;;0.50;1.30;;;;;;5025873;28;20435;-63
2022/12/18 11:55:41;;;;;;;14.25;8.63;;;0.60;1.00;;;;;;5029048;28;20449;-63
2022/12/18 11:58:34;;;;;;;11.73;7.50;;;0.50;1.00;;;;;;5027921;28;20045;-63
2022/12/18 12:01:45;;;;;;;12.98;7.90;;;0.40;1.00;;;;;;5019912;28;20128;-63
2022/12/18 12:04:41;;;;;;;15.55;10.40;;;0.80;1.00;;;;;;5015749;28;20046;-63
2022/12/18 12:07:22;;;;;;;17.52;9.75;;;0.70;1.00;;;;;;5027707;28;20069;-63
2022/12/18 12:10:20;;;;;;;14.40;8.63;;;0.70;1.00;;;;;;5028325;28;20033;-63
2022/12/18 12:13:15;;;;;;;18.10;9.13;;;0.70;1.00;;;;;;5027803;28;20054;-63
2022/12/18 12:16:04;;;;;;;14.32;8.52;;;0.80;1.00;;;;;;5006337;28;20095;-63
2022/12/18 12:18:45;;;;;;;13.23;8.68;;;0.70;1.00;;;;;;5030062;28;20037;-63
2022/12/18 12:21:11;;;;;;;14.07;7.53;;;0.70;1.00;;;;;;5025670;28;20041;-63
2022/12/18 12:23:43;;;;;;;14.50;9.00;;;0.60;1.00;;;;;;5029060;28;20036;-63
2022/12/18 12:26:16;;;;;;;16.42;8.45;;;0.80;1.00;;;;;;5028261;28;20164;-63
2022/12/18 12:28:54;;;;;;;14.57;10.25;;;0.80;1.00;;;;;;5026233;28;20049;-63
2022/12/18 12:31:47;;;;;;;14.25;9.25;;;0.80;1.00;;;;;;5027880;28;20041;-63
2022/12/18 12:34:24;;;;;;;14.32;9.07;;;0.90;1.00;;;;;;5025591;28;20037;-63
2022/12/18 12:36:55;;;;;;;13.93;8.80;;;0.90;1.00;;;;;;5031773;28;20055;-63
2022/12/18 12:39:28;;;;;;;14.52;8.73;;;0.90;1.00;;;;;;5030940;28;20037;-63
2022/12/18 12:44:51;;;;;;;16.98;10.95;;;0.80;1.00;;;;;;5028894;28;20045;-64
2022/12/18 12:47:35;;;;;;;16.73;11.15;;;0.90;1.00;;;;;;5033148;28;20065;-63
2022/12/18 12:50:06;;;;;;;18.50;10.40;;;1.20;1.00;;;;;;5026263;28;20146;-63
2022/12/18 12:52:42;;;;;;;16.42;10.48;;;1.00;1.00;;;;;;5031327;28;20033;-63
2022/12/18 12:55:17;;;;;;;14.70;9.63;;;0.90;1.00;;;;;;5024207;28;20029;-63
2022/12/18 12:58:07;;;;;;;16.13;10.48;;;0.90;1.00;;;;;;5028280;28;20509;-63